<?xml version="1.0" encoding="UTF-8" standalone="no" ?>
<gpx xmlns="http://www.topografix.com/GPX/1/1" xmlns:xsi="http://www.w3.org/2001/XMLSchema-instance" xsi:schemaLocation="http://www.topografix.com/GPX/1/1 http://www.topografix.com/GPX/1/1/gpx.xsd" version="1.1" creator="VisuGPX - https://www.visugpx.com">
  <metadata>
    <name>Mont Charvet depuis les Confins</name>
  </metadata>
  <wpt lat="45.92025" lon="6.48028">
    <ele>1415.9</ele>
    <name><![CDATA[Parking du Golf]]></name>
  </wpt>
  <wpt lat="45.92157" lon="6.48867">
    <ele>1458.9</ele>
    <name><![CDATA[La Lanchette - Piste]]></name>
  </wpt>
  <wpt lat="45.93483" lon="6.50404">
    <ele>1545.9</ele>
    <name><![CDATA[La Pierre Marquée]]></name>
  </wpt>
  <wpt lat="45.93892" lon="6.50968">
    <ele>1599.8</ele>
    <name><![CDATA[La Bombardellaz - Croisement de la boucle]]></name>
  </wpt>
  <wpt lat="45.94041" lon="6.52867">
    <ele>2001.5</ele>
    <name><![CDATA[Combe du Mont Charvet]]></name>
  </wpt>
  <wpt lat="45.94067" lon="6.53966">
    <ele>2376.2</ele>
    <name><![CDATA[Arrivée en crête]]></name>
  </wpt>
  <wpt lat="45.94255" lon="6.53879">
    <ele>2498.4</ele>
    <name><![CDATA[Sommet du]]></name>
  </wpt>
  <wpt lat="45.94749" lon="6.52167">
    <ele>1627.3</ele>
    <name><![CDATA[Jonction GRP®]]></name>
  </wpt>
  <wpt lat="45.93911" lon="6.50971">
    <ele>1591.9</ele>
    <name><![CDATA[Les chalets/Oratoire]]></name>
  </wpt>
  <wpt lat="45.92025" lon="6.48025">
    <ele>1415.8</ele>
    <name><![CDATA[Parking du Golf]]></name>
  </wpt>
  <trk>
    <name><![CDATA[Mont Charvet depuis les Confins_3]]></name>
    <trkseg>
      <trkpt lat="45.94748" lon="6.52158">
        <ele>1615</ele>
        <time>2021-09-07T23:27:44+02:00</time>
      </trkpt>
      <trkpt lat="45.94728" lon="6.52131">
        <ele>1616</ele>
        <time>2021-09-07T23:27:49+02:00</time>
      </trkpt>
      <trkpt lat="45.94716" lon="6.52113">
        <ele>1617</ele>
        <time>2021-09-07T23:27:54+02:00</time>
      </trkpt>
      <trkpt lat="45.94684" lon="6.52106">
        <ele>1620</ele>
        <time>2021-09-07T23:27:59+02:00</time>
      </trkpt>
      <trkpt lat="45.94666" lon="6.5209">
        <ele>1613</ele>
        <time>2021-09-07T23:28:04+02:00</time>
      </trkpt>
      <trkpt lat="45.9463" lon="6.52055">
        <ele>1605</ele>
        <time>2021-09-07T23:28:09+02:00</time>
      </trkpt>
      <trkpt lat="45.94618" lon="6.52042">
        <ele>1603</ele>
        <time>2021-09-07T23:28:14+02:00</time>
      </trkpt>
      <trkpt lat="45.94601" lon="6.52042">
        <ele>1600</ele>
        <time>2021-09-07T23:28:19+02:00</time>
      </trkpt>
      <trkpt lat="45.94595" lon="6.52027">
        <ele>1595</ele>
        <time>2021-09-07T23:28:24+02:00</time>
      </trkpt>
      <trkpt lat="45.94592" lon="6.52">
        <ele>1588</ele>
        <time>2021-09-07T23:28:29+02:00</time>
      </trkpt>
      <trkpt lat="45.94579" lon="6.51964">
        <ele>1577</ele>
        <time>2021-09-07T23:28:34+02:00</time>
      </trkpt>
      <trkpt lat="45.94556" lon="6.51937">
        <ele>1570</ele>
        <time>2021-09-07T23:28:39+02:00</time>
      </trkpt>
      <trkpt lat="45.94529" lon="6.51891">
        <ele>1558</ele>
        <time>2021-09-07T23:28:44+02:00</time>
      </trkpt>
      <trkpt lat="45.94505" lon="6.51853">
        <ele>1553</ele>
        <time>2021-09-07T23:28:49+02:00</time>
      </trkpt>
      <trkpt lat="45.94482" lon="6.51821">
        <ele>1551</ele>
        <time>2021-09-07T23:28:54+02:00</time>
      </trkpt>
      <trkpt lat="45.94454" lon="6.51793">
        <ele>1547</ele>
        <time>2021-09-07T23:28:59+02:00</time>
      </trkpt>
      <trkpt lat="45.94435" lon="6.51772">
        <ele>1541</ele>
        <time>2021-09-07T23:29:04+02:00</time>
      </trkpt>
      <trkpt lat="45.94416" lon="6.51773">
        <ele>1539</ele>
        <time>2021-09-07T23:29:09+02:00</time>
      </trkpt>
      <trkpt lat="45.94401" lon="6.51761">
        <ele>1536</ele>
        <time>2021-09-07T23:29:14+02:00</time>
      </trkpt>
      <trkpt lat="45.94357" lon="6.5172">
        <ele>1529</ele>
        <time>2021-09-07T23:29:19+02:00</time>
      </trkpt>
      <trkpt lat="45.94323" lon="6.51666">
        <ele>1515</ele>
        <time>2021-09-07T23:29:24+02:00</time>
      </trkpt>
      <trkpt lat="45.94287" lon="6.51644">
        <ele>1507</ele>
        <time>2021-09-07T23:29:29+02:00</time>
      </trkpt>
      <trkpt lat="45.94266" lon="6.51639">
        <ele>1506</ele>
        <time>2021-09-07T23:29:34+02:00</time>
      </trkpt>
      <trkpt lat="45.94249" lon="6.51613">
        <ele>1500</ele>
        <time>2021-09-07T23:29:39+02:00</time>
      </trkpt>
      <trkpt lat="45.94232" lon="6.51593">
        <ele>1498</ele>
        <time>2021-09-07T23:29:44+02:00</time>
      </trkpt>
      <trkpt lat="45.94198" lon="6.51567">
        <ele>1499</ele>
        <time>2021-09-07T23:29:49+02:00</time>
      </trkpt>
      <trkpt lat="45.94178" lon="6.51538">
        <ele>1500</ele>
        <time>2021-09-07T23:29:54+02:00</time>
      </trkpt>
      <trkpt lat="45.94155" lon="6.5152">
        <ele>1504</ele>
        <time>2021-09-07T23:29:59+02:00</time>
      </trkpt>
      <trkpt lat="45.94108" lon="6.51496">
        <ele>1510</ele>
        <time>2021-09-07T23:30:04+02:00</time>
      </trkpt>
      <trkpt lat="45.94087" lon="6.51476">
        <ele>1516</ele>
        <time>2021-09-07T23:30:09+02:00</time>
      </trkpt>
      <trkpt lat="45.94086" lon="6.51446">
        <ele>1517</ele>
        <time>2021-09-07T23:30:14+02:00</time>
      </trkpt>
      <trkpt lat="45.94085" lon="6.51424">
        <ele>1520</ele>
        <time>2021-09-07T23:30:19+02:00</time>
      </trkpt>
      <trkpt lat="45.94097" lon="6.51392">
        <ele>1526</ele>
        <time>2021-09-07T23:30:24+02:00</time>
      </trkpt>
      <trkpt lat="45.9412" lon="6.51369">
        <ele>1530</ele>
        <time>2021-09-07T23:30:29+02:00</time>
      </trkpt>
      <trkpt lat="45.94127" lon="6.51352">
        <ele>1534</ele>
        <time>2021-09-07T23:30:34+02:00</time>
      </trkpt>
      <trkpt lat="45.9413" lon="6.5134">
        <ele>1536</ele>
        <time>2021-09-07T23:30:39+02:00</time>
      </trkpt>
      <trkpt lat="45.94115" lon="6.51333">
        <ele>1541</ele>
        <time>2021-09-07T23:30:44+02:00</time>
      </trkpt>
      <trkpt lat="45.94098" lon="6.51324">
        <ele>1547</ele>
        <time>2021-09-07T23:30:49+02:00</time>
      </trkpt>
      <trkpt lat="45.94084" lon="6.51318">
        <ele>1551</ele>
        <time>2021-09-07T23:30:54+02:00</time>
      </trkpt>
      <trkpt lat="45.94078" lon="6.51301">
        <ele>1555</ele>
        <time>2021-09-07T23:30:59+02:00</time>
      </trkpt>
      <trkpt lat="45.94076" lon="6.51284">
        <ele>1557</ele>
        <time>2021-09-07T23:31:04+02:00</time>
      </trkpt>
      <trkpt lat="45.94068" lon="6.51271">
        <ele>1559</ele>
        <time>2021-09-07T23:31:09+02:00</time>
      </trkpt>
      <trkpt lat="45.9404" lon="6.51267">
        <ele>1563</ele>
        <time>2021-09-07T23:31:14+02:00</time>
      </trkpt>
      <trkpt lat="45.94018" lon="6.51243">
        <ele>1568</ele>
        <time>2021-09-07T23:31:19+02:00</time>
      </trkpt>
      <trkpt lat="45.94003" lon="6.51225">
        <ele>1570</ele>
        <time>2021-09-07T23:31:24+02:00</time>
      </trkpt>
      <trkpt lat="45.93991" lon="6.51214">
        <ele>1571</ele>
        <time>2021-09-07T23:31:29+02:00</time>
      </trkpt>
      <trkpt lat="45.93978" lon="6.51201">
        <ele>1572</ele>
        <time>2021-09-07T23:31:34+02:00</time>
      </trkpt>
      <trkpt lat="45.93955" lon="6.51152">
        <ele>1579</ele>
        <time>2021-09-07T23:31:39+02:00</time>
      </trkpt>
      <trkpt lat="45.93946" lon="6.51112">
        <ele>1585</ele>
        <time>2021-09-07T23:31:44+02:00</time>
      </trkpt>
      <trkpt lat="45.93938" lon="6.51071">
        <ele>1592</ele>
        <time>2021-09-07T23:31:49+02:00</time>
      </trkpt>
      <trkpt lat="45.9394" lon="6.51051">
        <ele>1593</ele>
        <time>2021-09-07T23:31:54+02:00</time>
      </trkpt>
      <trkpt lat="45.93941" lon="6.51034">
        <ele>1594</ele>
        <time>2021-09-07T23:31:59+02:00</time>
      </trkpt>
      <trkpt lat="45.93926" lon="6.51006">
        <ele>1594</ele>
        <time>2021-09-07T23:32:04+02:00</time>
      </trkpt>
      <trkpt lat="45.93911" lon="6.50971">
        <ele>1593</ele>
        <time>2021-09-07T23:32:09+02:00</time>
      </trkpt>
      <trkpt lat="45.93896" lon="6.50965">
        <ele>1599</ele>
        <time>2021-09-07T23:32:14+02:00</time>
      </trkpt>
      <trkpt lat="45.93891" lon="6.50964">
        <ele>1601</ele>
        <time>2021-09-07T23:32:19+02:00</time>
      </trkpt>
      <trkpt lat="45.9388" lon="6.50939">
        <ele>1604</ele>
        <time>2021-09-07T23:32:24+02:00</time>
      </trkpt>
      <trkpt lat="45.9387" lon="6.50887">
        <ele>1599</ele>
        <time>2021-09-07T23:32:29+02:00</time>
      </trkpt>
      <trkpt lat="45.93842" lon="6.50831">
        <ele>1599</ele>
        <time>2021-09-07T23:32:34+02:00</time>
      </trkpt>
      <trkpt lat="45.9379" lon="6.50763">
        <ele>1604</ele>
        <time>2021-09-07T23:32:39+02:00</time>
      </trkpt>
      <trkpt lat="45.93715" lon="6.507">
        <ele>1611</ele>
        <time>2021-09-07T23:32:44+02:00</time>
      </trkpt>
      <trkpt lat="45.93669" lon="6.50673">
        <ele>1614</ele>
        <time>2021-09-07T23:32:49+02:00</time>
      </trkpt>
      <trkpt lat="45.93646" lon="6.50653">
        <ele>1614</ele>
        <time>2021-09-07T23:32:54+02:00</time>
      </trkpt>
      <trkpt lat="45.93622" lon="6.50631">
        <ele>1614</ele>
        <time>2021-09-07T23:32:59+02:00</time>
      </trkpt>
      <trkpt lat="45.93598" lon="6.5062">
        <ele>1612</ele>
        <time>2021-09-07T23:33:04+02:00</time>
      </trkpt>
      <trkpt lat="45.93546" lon="6.5061">
        <ele>1600</ele>
        <time>2021-09-07T23:33:09+02:00</time>
      </trkpt>
      <trkpt lat="45.93527" lon="6.50611">
        <ele>1596</ele>
        <time>2021-09-07T23:33:14+02:00</time>
      </trkpt>
      <trkpt lat="45.93507" lon="6.50634">
        <ele>1592</ele>
        <time>2021-09-07T23:33:19+02:00</time>
      </trkpt>
      <trkpt lat="45.93495" lon="6.50655">
        <ele>1591</ele>
        <time>2021-09-07T23:33:24+02:00</time>
      </trkpt>
      <trkpt lat="45.93487" lon="6.50645">
        <ele>1588</ele>
        <time>2021-09-07T23:33:29+02:00</time>
      </trkpt>
      <trkpt lat="45.9348" lon="6.50607">
        <ele>1579</ele>
        <time>2021-09-07T23:33:34+02:00</time>
      </trkpt>
      <trkpt lat="45.93465" lon="6.50624">
        <ele>1577</ele>
        <time>2021-09-07T23:33:39+02:00</time>
      </trkpt>
      <trkpt lat="45.93451" lon="6.50631">
        <ele>1573</ele>
        <time>2021-09-07T23:33:44+02:00</time>
      </trkpt>
      <trkpt lat="45.93444" lon="6.50634">
        <ele>1571</ele>
        <time>2021-09-07T23:33:49+02:00</time>
      </trkpt>
      <trkpt lat="45.93445" lon="6.50513">
        <ele>1551</ele>
        <time>2021-09-07T23:33:54+02:00</time>
      </trkpt>
      <trkpt lat="45.9345" lon="6.50462">
        <ele>1542</ele>
        <time>2021-09-07T23:33:59+02:00</time>
      </trkpt>
      <trkpt lat="45.93479" lon="6.50401">
        <ele>1537</ele>
        <time>2021-09-07T23:34:04+02:00</time>
      </trkpt>
      <trkpt lat="45.93476" lon="6.50371">
        <ele>1534</ele>
        <time>2021-09-07T23:34:09+02:00</time>
      </trkpt>
      <trkpt lat="45.93475" lon="6.50336">
        <ele>1530</ele>
        <time>2021-09-07T23:34:14+02:00</time>
      </trkpt>
      <trkpt lat="45.93461" lon="6.50297">
        <ele>1524</ele>
        <time>2021-09-07T23:34:19+02:00</time>
      </trkpt>
      <trkpt lat="45.93451" lon="6.50266">
        <ele>1518</ele>
        <time>2021-09-07T23:34:24+02:00</time>
      </trkpt>
      <trkpt lat="45.93417" lon="6.50248">
        <ele>1513</ele>
        <time>2021-09-07T23:34:29+02:00</time>
      </trkpt>
      <trkpt lat="45.93408" lon="6.50229">
        <ele>1511</ele>
        <time>2021-09-07T23:34:34+02:00</time>
      </trkpt>
      <trkpt lat="45.9339" lon="6.50194">
        <ele>1509</ele>
        <time>2021-09-07T23:34:39+02:00</time>
      </trkpt>
      <trkpt lat="45.93374" lon="6.50184">
        <ele>1506</ele>
        <time>2021-09-07T23:34:44+02:00</time>
      </trkpt>
      <trkpt lat="45.93366" lon="6.50172">
        <ele>1504</ele>
        <time>2021-09-07T23:34:49+02:00</time>
      </trkpt>
      <trkpt lat="45.93357" lon="6.50167">
        <ele>1503</ele>
        <time>2021-09-07T23:34:54+02:00</time>
      </trkpt>
      <trkpt lat="45.93342" lon="6.50138">
        <ele>1499</ele>
        <time>2021-09-07T23:34:59+02:00</time>
      </trkpt>
      <trkpt lat="45.93328" lon="6.50125">
        <ele>1496</ele>
        <time>2021-09-07T23:35:04+02:00</time>
      </trkpt>
      <trkpt lat="45.93317" lon="6.50108">
        <ele>1493</ele>
        <time>2021-09-07T23:35:09+02:00</time>
      </trkpt>
      <trkpt lat="45.93294" lon="6.50087">
        <ele>1491</ele>
        <time>2021-09-07T23:35:14+02:00</time>
      </trkpt>
      <trkpt lat="45.9324" lon="6.50024">
        <ele>1495</ele>
        <time>2021-09-07T23:35:19+02:00</time>
      </trkpt>
      <trkpt lat="45.93206" lon="6.49991">
        <ele>1491</ele>
        <time>2021-09-07T23:35:24+02:00</time>
      </trkpt>
      <trkpt lat="45.93176" lon="6.49945">
        <ele>1486</ele>
        <time>2021-09-07T23:35:29+02:00</time>
      </trkpt>
      <trkpt lat="45.93152" lon="6.49936">
        <ele>1482</ele>
        <time>2021-09-07T23:35:34+02:00</time>
      </trkpt>
      <trkpt lat="45.93131" lon="6.49912">
        <ele>1478</ele>
        <time>2021-09-07T23:35:39+02:00</time>
      </trkpt>
      <trkpt lat="45.93122" lon="6.49874">
        <ele>1476</ele>
        <time>2021-09-07T23:35:44+02:00</time>
      </trkpt>
      <trkpt lat="45.93116" lon="6.49826">
        <ele>1476</ele>
        <time>2021-09-07T23:35:49+02:00</time>
      </trkpt>
      <trkpt lat="45.93116" lon="6.49815">
        <ele>1477</ele>
        <time>2021-09-07T23:35:54+02:00</time>
      </trkpt>
      <trkpt lat="45.93104" lon="6.49785">
        <ele>1476</ele>
        <time>2021-09-07T23:35:59+02:00</time>
      </trkpt>
      <trkpt lat="45.93079" lon="6.4975">
        <ele>1472</ele>
        <time>2021-09-07T23:36:04+02:00</time>
      </trkpt>
      <trkpt lat="45.93031" lon="6.49718">
        <ele>1470</ele>
        <time>2021-09-07T23:36:09+02:00</time>
      </trkpt>
      <trkpt lat="45.92978" lon="6.49684">
        <ele>1470</ele>
        <time>2021-09-07T23:36:14+02:00</time>
      </trkpt>
      <trkpt lat="45.92949" lon="6.49649">
        <ele>1469</ele>
        <time>2021-09-07T23:36:19+02:00</time>
      </trkpt>
      <trkpt lat="45.92896" lon="6.49601">
        <ele>1470</ele>
        <time>2021-09-07T23:36:24+02:00</time>
      </trkpt>
      <trkpt lat="45.92861" lon="6.49554">
        <ele>1472</ele>
        <time>2021-09-07T23:36:29+02:00</time>
      </trkpt>
      <trkpt lat="45.92836" lon="6.49523">
        <ele>1478</ele>
        <time>2021-09-07T23:36:34+02:00</time>
      </trkpt>
      <trkpt lat="45.92786" lon="6.49494">
        <ele>1486</ele>
        <time>2021-09-07T23:36:39+02:00</time>
      </trkpt>
      <trkpt lat="45.92751" lon="6.49462">
        <ele>1490</ele>
        <time>2021-09-07T23:36:44+02:00</time>
      </trkpt>
      <trkpt lat="45.92719" lon="6.49374">
        <ele>1489</ele>
        <time>2021-09-07T23:36:49+02:00</time>
      </trkpt>
      <trkpt lat="45.92696" lon="6.49299">
        <ele>1487</ele>
        <time>2021-09-07T23:36:54+02:00</time>
      </trkpt>
      <trkpt lat="45.92682" lon="6.49284">
        <ele>1485</ele>
        <time>2021-09-07T23:36:59+02:00</time>
      </trkpt>
      <trkpt lat="45.92635" lon="6.49251">
        <ele>1487</ele>
        <time>2021-09-07T23:37:04+02:00</time>
      </trkpt>
      <trkpt lat="45.92606" lon="6.49229">
        <ele>1487</ele>
        <time>2021-09-07T23:37:09+02:00</time>
      </trkpt>
      <trkpt lat="45.92539" lon="6.49212">
        <ele>1495</ele>
        <time>2021-09-07T23:37:14+02:00</time>
      </trkpt>
      <trkpt lat="45.92491" lon="6.49191">
        <ele>1493</ele>
        <time>2021-09-07T23:37:19+02:00</time>
      </trkpt>
      <trkpt lat="45.92464" lon="6.49157">
        <ele>1490</ele>
        <time>2021-09-07T23:37:24+02:00</time>
      </trkpt>
      <trkpt lat="45.92439" lon="6.49108">
        <ele>1488</ele>
        <time>2021-09-07T23:37:29+02:00</time>
      </trkpt>
      <trkpt lat="45.92412" lon="6.49116">
        <ele>1484</ele>
        <time>2021-09-07T23:37:34+02:00</time>
      </trkpt>
      <trkpt lat="45.92373" lon="6.49112">
        <ele>1481</ele>
        <time>2021-09-07T23:37:39+02:00</time>
      </trkpt>
      <trkpt lat="45.92335" lon="6.49078">
        <ele>1474</ele>
        <time>2021-09-07T23:37:44+02:00</time>
      </trkpt>
      <trkpt lat="45.923" lon="6.49065">
        <ele>1470</ele>
        <time>2021-09-07T23:37:49+02:00</time>
      </trkpt>
      <trkpt lat="45.92254" lon="6.49006">
        <ele>1461</ele>
        <time>2021-09-07T23:37:54+02:00</time>
      </trkpt>
      <trkpt lat="45.92229" lon="6.4896">
        <ele>1456</ele>
        <time>2021-09-07T23:37:59+02:00</time>
      </trkpt>
      <trkpt lat="45.92185" lon="6.48909">
        <ele>1453</ele>
        <time>2021-09-07T23:38:04+02:00</time>
      </trkpt>
      <trkpt lat="45.92158" lon="6.48868">
        <ele>1455</ele>
        <time>2021-09-07T23:38:09+02:00</time>
      </trkpt>
      <trkpt lat="45.92176" lon="6.48832">
        <ele>1454</ele>
        <time>2021-09-07T23:38:14+02:00</time>
      </trkpt>
      <trkpt lat="45.92176" lon="6.48798">
        <ele>1455</ele>
        <time>2021-09-07T23:38:19+02:00</time>
      </trkpt>
      <trkpt lat="45.92147" lon="6.48705">
        <ele>1463</ele>
        <time>2021-09-07T23:38:24+02:00</time>
      </trkpt>
      <trkpt lat="45.92117" lon="6.48654">
        <ele>1470</ele>
        <time>2021-09-07T23:38:29+02:00</time>
      </trkpt>
      <trkpt lat="45.92126" lon="6.486">
        <ele>1470</ele>
        <time>2021-09-07T23:38:34+02:00</time>
      </trkpt>
      <trkpt lat="45.92135" lon="6.48561">
        <ele>1466</ele>
        <time>2021-09-07T23:38:39+02:00</time>
      </trkpt>
      <trkpt lat="45.92123" lon="6.48535">
        <ele>1465</ele>
        <time>2021-09-07T23:38:44+02:00</time>
      </trkpt>
      <trkpt lat="45.92109" lon="6.48534">
        <ele>1467</ele>
        <time>2021-09-07T23:38:49+02:00</time>
      </trkpt>
      <trkpt lat="45.92088" lon="6.48538">
        <ele>1469</ele>
        <time>2021-09-07T23:38:54+02:00</time>
      </trkpt>
      <trkpt lat="45.9208" lon="6.4846">
        <ele>1457</ele>
        <time>2021-09-07T23:38:59+02:00</time>
      </trkpt>
      <trkpt lat="45.92077" lon="6.48389">
        <ele>1450</ele>
        <time>2021-09-07T23:39:04+02:00</time>
      </trkpt>
      <trkpt lat="45.92082" lon="6.48287">
        <ele>1436</ele>
        <time>2021-09-07T23:39:09+02:00</time>
      </trkpt>
      <trkpt lat="45.92068" lon="6.48208">
        <ele>1428</ele>
        <time>2021-09-07T23:39:14+02:00</time>
      </trkpt>
      <trkpt lat="45.92058" lon="6.4808">
        <ele>1418</ele>
        <time>2021-09-07T23:39:19+02:00</time>
      </trkpt>
      <trkpt lat="45.92052" lon="6.48072">
        <ele>1417</ele>
        <time>2021-09-07T23:39:24+02:00</time>
      </trkpt>
      <trkpt lat="45.92037" lon="6.48053">
        <ele>1416</ele>
        <time>2021-09-07T23:39:29+02:00</time>
      </trkpt>
      <trkpt lat="45.92025" lon="6.48025">
        <ele>1415</ele>
        <time>2021-09-07T23:39:34+02:00</time>
      </trkpt>
    </trkseg>
  </trk>
</gpx>